Time;durP1;ratioP1;P1;durP2;ratioP2;P2;SDS_P1;SDS_P2;PMS_P1;PMS_P2;Temp;Humidity;BMP_temperature;BMP_pressure;BME280_temperature;BME280_humidity;BME280_pressure;Samples;Min_cycle;Max_cycle;Signal;HPM_P1;HPM_P2
2021/11/21 00:01:34;;;;;;;19.73;16.50;;;8.10;99.90;;;;;;5085634;28;20236;-67
2021/11/21 00:04:00;;;;;;;20.87;17.00;;;8.20;99.90;;;;;;5088887;28;20194;-66
2021/11/21 00:06:27;;;;;;;30.03;18.87;;;8.10;99.90;;;;;;5074928;28;20560;-67
2021/11/21 00:08:53;;;;;;;23.27;17.83;;;8.20;99.90;;;;;;5079846;28;20174;-64
2021/11/21 00:11:19;;;;;;;19.73;15.93;;;8.20;99.90;;;;;;5075201;28;20549;-66
2021/11/21 00:13:45;;;;;;;19.90;16.43;;;8.20;99.90;;;;;;5075647;28;20194;-66
2021/11/21 00:16:11;;;;;;;21.87;15.60;;;8.10;99.90;;;;;;5075833;28;20178;-67
2021/11/21 00:18:37;;;;;;;25.63;17.13;;;8.20;99.90;;;;;;5074638;28;20610;-66
2021/11/21 00:21:02;;;;;;;24.50;18.23;;;8.20;99.90;;;;;;5089144;28;20236;-66
2021/11/21 00:23:28;;;;;;;19.17;16.90;;;8.20;99.90;;;;;;5090326;28;20209;-68
2021/11/21 00:25:53;;;;;;;22.67;16.93;;;8.20;99.90;;;;;;5084530;28;20269;-67
2021/11/21 00:28:19;;;;;;;24.03;16.60;;;8.20;99.90;;;;;;5092332;28;20170;-67
2021/11/21 00:30:45;;;;;;;29.07;20.07;;;8.20;99.90;;;;;;5074125;28;20536;-67
2021/11/21 00:33:10;;;;;;;20.47;17.40;;;8.20;99.90;;;;;;5074280;28;20177;-67
2021/11/21 00:35:36;;;;;;;20.93;15.93;;;8.10;99.90;;;;;;5090224;28;20472;-67
2021/11/21 00:38:02;;;;;;;19.17;16.70;;;8.20;99.90;;;;;;5074039;28;20639;-68
2021/11/21 00:40:28;;;;;;;20.33;16.03;;;8.20;99.90;;;;;;5092255;28;20250;-66
2021/11/21 00:42:57;;;;;;;21.30;16.80;;;8.20;99.90;;;;;;5093368;28;20173;-67
2021/11/21 00:45:24;;;;;;;20.73;17.03;;;8.20;99.90;;;;;;5076487;28;20715;-67
2021/11/21 00:47:49;;;;;;;23.67;17.77;;;8.20;99.90;;;;;;5074020;28;20178;-67
2021/11/21 00:50:16;;;;;;;24.87;17.80;;;8.30;99.90;;;;;;5082057;28;20205;-68
2021/11/21 00:52:42;;;;;;;21.90;18.07;;;8.30;99.90;;;;;;5074685;28;20182;-66
2021/11/21 00:55:11;;;;;;;23.77;19.10;;;8.20;99.90;;;;;;5077742;28;20611;-67
2021/11/21 00:57:42;;;;;;;18.20;16.30;;;8.20;99.90;;;;;;5093095;28;20296;-68
2021/11/21 01:00:11;;;;;;;21.90;17.47;;;8.20;99.90;;;;;;5082428;28;20228;-67
2021/11/21 01:02:39;;;;;;;24.33;18.00;;;8.20;99.90;;;;;;5093559;28;20216;-67
2021/11/21 01:05:06;;;;;;;20.70;17.50;;;8.20;99.90;;;;;;5092262;28;20193;-68
2021/11/21 01:07:36;;;;;;;27.87;18.40;;;8.20;99.90;;;;;;5093780;28;20650;-67
2021/11/21 01:10:06;;;;;;;21.53;16.97;;;8.20;99.90;;;;;;5082900;28;20181;-67
2021/11/21 01:12:32;;;;;;;22.33;17.60;;;8.20;99.90;;;;;;5074875;28;20521;-66
2021/11/21 01:14:58;;;;;;;21.03;17.07;;;8.20;99.90;;;;;;5083652;28;20293;-67
2021/11/21 01:17:23;;;;;;;23.40;16.83;;;8.20;99.90;;;;;;5093833;28;20185;-63
2021/11/21 01:19:49;;;;;;;20.33;16.83;;;8.20;99.90;;;;;;5084822;28;20312;-68
2021/11/21 01:22:14;;;;;;;24.40;17.57;;;8.20;99.90;;;;;;5091749;28;20209;-68
2021/11/21 01:24:40;;;;;;;21.60;17.37;;;8.30;99.90;;;;;;5087682;28;20288;-67
2021/11/21 01:27:06;;;;;;;24.37;17.03;;;8.20;99.90;;;;;;5079358;28;20182;-67
2021/11/21 01:29:32;;;;;;;24.13;17.67;;;8.20;99.90;;;;;;5089828;28;20238;-68
2021/11/21 01:31:57;;;;;;;21.27;17.90;;;8.20;99.90;;;;;;5093495;28;20181;-67
2021/11/21 01:34:23;;;;;;;19.90;16.57;;;8.20;99.90;;;;;;5082160;28;20588;-66
2021/11/21 01:36:49;;;;;;;19.43;17.10;;;8.20;99.90;;;;;;5073146;28;20257;-67
2021/11/21 01:39:14;;;;;;;22.87;18.17;;;8.20;99.90;;;;;;5085642;28;20328;-66
2021/11/21 01:41:40;;;;;;;20.97;17.03;;;8.20;99.90;;;;;;5074303;28;20206;-67
2021/11/21 01:44:09;;;;;;;21.87;17.40;;;8.20;99.90;;;;;;5073475;28;20686;-67
2021/11/21 01:46:38;;;;;;;28.50;18.63;;;8.10;99.90;;;;;;5078615;28;20594;-68
2021/11/21 01:49:05;;;;;;;24.83;18.83;;;8.10;99.90;;;;;;5074731;28;20716;-67
2021/11/21 01:51:31;;;;;;;25.13;18.07;;;8.10;99.90;;;;;;5091605;28;20181;-66
2021/11/21 01:53:57;;;;;;;24.90;18.20;;;8.10;99.90;;;;;;5091792;28;20196;-67
2021/11/21 01:56:26;;;;;;;22.07;16.37;;;8.20;99.90;;;;;;5080954;28;20646;-67
2021/11/21 01:58:52;;;;;;;22.93;17.23;;;8.20;99.90;;;;;;5072677;28;20182;-68
2021/11/21 02:01:17;;;;;;;23.27;18.20;;;8.20;99.90;;;;;;5082739;28;20251;-67
2021/11/21 02:03:43;;;;;;;29.57;18.83;;;8.20;99.90;;;;;;5072741;28;20186;-66
2021/11/21 02:06:09;;;;;;;25.33;18.17;;;8.10;99.90;;;;;;5090254;28;20200;-66
2021/11/21 02:08:35;;;;;;;27.73;19.20;;;8.10;99.90;;;;;;5092895;28;20165;-68
2021/11/21 02:11:01;;;;;;;26.37;18.70;;;8.10;99.90;;;;;;5090650;28;20177;-67
2021/11/21 02:13:26;;;;;;;28.63;20.47;;;8.00;99.90;;;;;;5076993;28;20178;-67
2021/11/21 02:15:52;;;;;;;25.37;18.63;;;8.10;99.90;;;;;;5072640;28;20185;-67
2021/11/21 02:18:18;;;;;;;23.30;17.23;;;8.10;99.90;;;;;;5085729;28;20185;-67
2021/11/21 02:20:45;;;;;;;25.60;20.27;;;8.10;99.90;;;;;;5086736;28;20189;-66
2021/11/21 02:23:11;;;;;;;26.47;19.10;;;8.00;99.90;;;;;;5092426;28;20702;-67
2021/11/21 02:25:38;;;;;;;25.43;19.10;;;8.00;99.90;;;;;;5086230;28;20303;-67
2021/11/21 02:28:06;;;;;;;29.10;18.67;;;8.00;99.90;;;;;;5072129;28;20550;-67
2021/11/21 02:30:31;;;;;;;28.87;18.20;;;8.00;99.90;;;;;;5084847;28;20177;-68
2021/11/21 02:32:57;;;;;;;31.77;18.77;;;8.00;99.90;;;;;;5090407;28;20230;-67
2021/11/21 02:35:24;;;;;;;33.70;21.23;;;7.90;99.90;;;;;;5075109;28;20219;-68
2021/11/21 02:37:50;;;;;;;24.57;17.33;;;7.90;99.90;;;;;;5085454;28;20235;-67
2021/11/21 02:40:17;;;;;;;35.00;18.77;;;7.90;99.90;;;;;;5088653;28;20196;-67
2021/11/21 02:42:43;;;;;;;43.90;24.37;;;7.90;99.90;;;;;;5087462;28;20301;-67
2021/11/21 02:45:12;;;;;;;35.73;21.97;;;8.00;99.90;;;;;;5081360;28;20634;-68
2021/11/21 02:47:38;;;;;;;31.17;18.37;;;8.00;99.90;;;;;;5077745;28;20182;-68
2021/11/21 02:50:15;;;;;;;36.00;22.73;;;7.90;99.90;;;;;;5085913;28;20181;-68
2021/11/21 02:52:41;;;;;;;24.70;18.13;;;7.90;99.90;;;;;;5092141;28;20566;-68
2021/11/21 02:55:07;;;;;;;37.47;21.43;;;7.80;99.90;;;;;;5085853;28;20205;-67
2021/11/21 02:57:33;;;;;;;33.33;20.67;;;7.90;99.90;;;;;;5076494;28;20188;-64
2021/11/21 03:00:01;;;;;;;35.50;22.30;;;7.90;99.90;;;;;;5073203;28;20190;-67
2021/11/21 03:02:27;;;;;;;37.97;23.13;;;7.90;99.90;;;;;;5085890;28;20258;-68
2021/11/21 03:04:53;;;;;;;49.07;26.43;;;7.90;99.90;;;;;;5069179;28;20195;-68
2021/11/21 03:07:19;;;;;;;35.80;20.77;;;7.80;99.90;;;;;;5086214;28;20582;-68
2021/11/21 03:09:49;;;;;;;33.73;22.17;;;7.90;99.90;;;;;;5084377;28;20174;-67
2021/11/21 03:12:19;;;;;;;36.90;21.73;;;7.90;99.90;;;;;;5071605;28;20269;-68
2021/11/21 03:14:44;;;;;;;26.50;17.13;;;7.90;99.90;;;;;;5072510;28;20201;-68
2021/11/21 03:17:10;;;;;;;24.37;17.63;;;7.80;99.90;;;;;;5084812;28;20268;-68
2021/11/21 03:19:36;;;;;;;27.43;18.50;;;7.70;99.90;;;;;;5084992;28;20339;-67
2021/11/21 03:22:02;;;;;;;38.67;21.80;;;7.70;99.90;;;;;;5071275;28;20729;-67
2021/11/21 03:24:28;;;;;;;40.10;21.83;;;7.70;99.90;;;;;;5075451;28;20338;-67
2021/11/21 03:26:53;;;;;;;35.20;20.83;;;7.70;99.90;;;;;;5087626;28;20218;-67
2021/11/21 03:29:19;;;;;;;38.13;22.00;;;7.80;99.90;;;;;;5080920;28;20177;-67
2021/11/21 03:31:44;;;;;;;53.20;25.27;;;7.70;99.90;;;;;;5071302;28;20631;-67
2021/11/21 03:34:11;;;;;;;30.53;19.37;;;7.70;99.90;;;;;;5080029;28;20221;-66
2021/11/21 03:36:38;;;;;;;48.60;24.40;;;7.70;99.90;;;;;;5090222;28;20253;-66
2021/11/21 03:39:05;;;;;;;39.03;21.93;;;7.60;99.90;;;;;;5070900;28;20635;-66
2021/11/21 03:41:31;;;;;;;27.43;18.33;;;7.60;99.90;;;;;;5072223;28;20197;-67
2021/11/21 03:43:57;;;;;;;32.63;18.37;;;7.60;99.90;;;;;;5077200;28;20225;-67
2021/11/21 03:46:23;;;;;;;44.47;22.07;;;7.60;99.90;;;;;;5091145;28;20239;-67
2021/11/21 03:48:49;;;;;;;35.57;20.97;;;7.60;99.90;;;;;;5071299;28;20189;-67
2021/11/21 03:51:15;;;;;;;38.23;21.67;;;7.60;99.90;;;;;;5071767;28;20174;-66
2021/11/21 03:53:41;;;;;;;38.77;23.03;;;7.60;99.90;;;;;;5076692;28;20694;-66
2021/11/21 03:56:07;;;;;;;37.00;21.47;;;7.60;99.90;;;;;;5079200;28;20215;-67
2021/11/21 03:58:32;;;;;;;34.97;20.83;;;7.70;99.90;;;;;;5071172;28;20174;-65
2021/11/21 04:00:59;;;;;;;31.30;20.80;;;7.70;99.90;;;;;;5071994;28;20194;-67
2021/11/21 04:03:25;;;;;;;37.37;21.40;;;7.70;99.90;;;;;;5071102;28;20181;-68
2021/11/21 04:05:51;;;;;;;37.57;23.47;;;7.60;99.90;;;;;;5091024;28;20647;-66
2021/11/21 04:08:16;;;;;;;31.37;21.27;;;7.60;99.90;;;;;;5091001;28;20170;-66
2021/11/21 04:10:42;;;;;;;37.27;21.90;;;7.60;99.90;;;;;;5075106;28;20185;-66
2021/11/21 04:13:09;;;;;;;29.27;19.87;;;7.60;99.90;;;;;;5050958;28;20179;-65
2021/11/21 04:15:35;;;;;;;36.90;22.33;;;7.60;99.90;;;;;;5071634;28;20189;-65
2021/11/21 04:18:00;;;;;;;32.77;19.50;;;7.60;99.90;;;;;;5070737;28;20170;-66
2021/11/21 04:20:26;;;;;;;32.43;18.80;;;7.60;99.90;;;;;;5080670;28;20193;-66
2021/11/21 04:22:52;;;;;;;28.03;18.70;;;7.70;99.90;;;;;;5070871;28;20564;-66
2021/11/21 04:25:18;;;;;;;35.17;19.37;;;7.60;99.90;;;;;;5083760;28;20194;-66
2021/11/21 04:27:43;;;;;;;30.63;18.77;;;7.60;99.90;;;;;;5081187;28;20171;-66
2021/11/21 04:30:13;;;;;;;25.57;16.70;;;7.60;99.90;;;;;;5073678;28;20253;-68
2021/11/21 04:32:40;;;;;;;23.27;15.10;;;7.60;99.90;;;;;;5088087;28;20256;-68
2021/11/21 04:35:07;;;;;;;26.17;17.83;;;7.50;99.90;;;;;;5086924;28;20212;-67
2021/11/21 04:37:34;;;;;;;28.47;17.13;;;7.50;99.90;;;;;;5094698;28;20209;-68
2021/11/21 04:39:59;;;;;;;25.93;17.30;;;7.50;99.90;;;;;;5085047;28;20213;-68
2021/11/21 04:42:25;;;;;;;25.30;16.57;;;7.50;99.90;;;;;;5086122;28;20288;-66
2021/11/21 04:44:51;;;;;;;25.97;16.10;;;7.50;99.90;;;;;;5088928;28;20250;-66
2021/11/21 04:47:16;;;;;;;30.70;18.70;;;7.60;99.90;;;;;;5094123;28;20170;-66
2021/11/21 04:49:42;;;;;;;32.10;15.40;;;7.60;99.90;;;;;;5089020;28;20639;-66
2021/11/21 04:52:08;;;;;;;27.17;17.87;;;7.50;99.90;;;;;;5094271;28;20166;-67
2021/11/21 04:54:34;;;;;;;26.40;17.40;;;7.60;99.90;;;;;;5083597;28;20194;-66
2021/11/21 04:57:00;;;;;;;28.10;17.33;;;7.60;99.90;;;;;;5085150;28;20185;-67
2021/11/21 04:59:25;;;;;;;27.57;16.33;;;7.60;99.90;;;;;;5088271;28;20178;-66
2021/11/21 05:01:51;;;;;;;27.47;16.10;;;7.60;99.90;;;;;;5080230;28;20608;-65
2021/11/21 05:04:17;;;;;;;25.77;15.43;;;7.60;99.90;;;;;;5080920;28;20190;-67
2021/11/21 05:06:42;;;;;;;24.50;15.17;;;7.60;99.90;;;;;;5094184;28;20257;-67
2021/11/21 05:09:08;;;;;;;25.17;16.80;;;7.60;99.90;;;;;;5089059;28;20177;-67
2021/11/21 05:11:35;;;;;;;25.83;17.70;;;7.60;99.90;;;;;;5084961;28;20560;-68
2021/11/21 05:14:04;;;;;;;22.23;17.00;;;7.60;99.90;;;;;;5078228;28;20226;-66
2021/11/21 05:16:30;;;;;;;22.83;16.97;;;7.60;99.90;;;;;;5094066;28;20634;-66
2021/11/21 05:18:55;;;;;;;27.30;16.20;;;7.60;99.90;;;;;;5092184;28;20178;-66
2021/11/21 05:21:21;;;;;;;23.80;15.40;;;7.60;99.90;;;;;;5093490;28;20666;-65
2021/11/21 05:23:47;;;;;;;23.43;16.03;;;7.60;99.90;;;;;;5090736;28;20662;-66
2021/11/21 05:26:13;;;;;;;22.77;15.90;;;7.60;99.90;;;;;;5081445;28;20231;-66
2021/11/21 05:28:39;;;;;;;19.10;14.70;;;7.60;99.90;;;;;;5079959;28;20188;-69
2021/11/21 05:31:04;;;;;;;18.83;15.27;;;7.60;99.90;;;;;;5074079;28;20239;-66
2021/11/21 05:33:30;;;;;;;25.40;16.23;;;7.60;99.90;;;;;;5074274;28;20210;-66
2021/11/21 05:35:55;;;;;;;22.70;15.80;;;7.70;99.90;;;;;;5053225;28;20648;-66
2021/11/21 05:38:21;;;;;;;19.00;14.47;;;7.70;99.90;;;;;;5059055;28;20180;-66
2021/11/21 05:40:47;;;;;;;25.47;15.40;;;7.70;99.90;;;;;;5081233;28;20201;-68
2021/11/21 05:43:13;;;;;;;16.07;14.13;;;7.70;99.90;;;;;;5072876;28;20207;-65
2021/11/21 05:45:38;;;;;;;19.00;13.60;;;7.60;99.90;;;;;;5074182;28;20182;-65
2021/11/21 05:48:04;;;;;;;21.43;14.10;;;7.60;99.90;;;;;;5093130;28;20192;-66
2021/11/21 05:50:30;;;;;;;17.33;13.40;;;7.70;99.90;;;;;;5086219;28;20541;-66
2021/11/21 05:52:56;;;;;;;22.57;15.40;;;7.70;99.90;;;;;;5088528;28;20177;-66
2021/11/21 05:55:22;;;;;;;23.90;15.67;;;7.60;99.90;;;;;;5084862;28;20201;-68
2021/11/21 05:57:48;;;;;;;20.80;15.37;;;7.60;99.90;;;;;;5072910;28;20260;-67
2021/11/21 06:00:22;;;;;;;18.33;13.77;;;7.60;99.90;;;;;;5077462;28;20268;-66
2021/11/21 06:02:48;;;;;;;22.90;15.00;;;7.70;99.90;;;;;;5052707;28;20244;-66
2021/11/21 06:05:15;;;;;;;18.63;15.33;;;7.70;99.90;;;;;;5079547;28;20197;-66
2021/11/21 06:07:40;;;;;;;24.13;15.07;;;7.60;99.90;;;;;;5092802;28;20223;-66
2021/11/21 06:10:08;;;;;;;21.43;16.17;;;7.60;99.90;;;;;;5080400;28;20178;-65
2021/11/21 06:12:34;;;;;;;19.67;14.60;;;7.60;99.90;;;;;;5072554;28;20359;-65
2021/11/21 06:14:59;;;;;;;20.57;14.63;;;7.60;99.90;;;;;;5077214;28;20771;-65
2021/11/21 06:17:25;;;;;;;14.57;13.07;;;7.60;99.90;;;;;;5072287;28;20202;-65
2021/11/21 06:19:51;;;;;;;17.70;14.93;;;7.60;99.90;;;;;;5084987;28;20278;-67
2021/11/21 06:22:18;;;;;;;20.40;14.23;;;7.60;99.90;;;;;;5072135;28;20280;-65
2021/11/21 06:24:44;;;;;;;18.03;14.57;;;7.60;99.90;;;;;;5084107;28;20191;-66
2021/11/21 06:27:11;;;;;;;19.23;14.30;;;7.60;99.90;;;;;;5074457;28;20224;-68
2021/11/21 06:29:37;;;;;;;17.70;13.20;;;7.60;99.90;;;;;;5085656;28;20200;-66
2021/11/21 06:32:03;;;;;;;18.90;12.70;;;7.70;99.90;;;;;;5092119;28;20659;-65
2021/11/21 06:34:29;;;;;;;21.30;14.83;;;7.60;99.90;;;;;;5081297;28;20217;-66
2021/11/21 06:36:55;;;;;;;21.07;14.00;;;7.60;99.90;;;;;;5072127;28;20540;-65
2021/11/21 06:39:21;;;;;;;27.90;14.70;;;7.60;99.90;;;;;;5080859;28;20178;-65
2021/11/21 06:41:46;;;;;;;17.17;13.83;;;7.60;99.90;;;;;;5083783;28;20667;-65
2021/11/21 06:44:12;;;;;;;27.50;15.23;;;7.70;99.90;;;;;;5089686;28;20508;-65
2021/11/21 06:46:38;;;;;;;18.17;14.93;;;7.60;99.90;;;;;;5092226;28;20631;-66
2021/11/21 06:49:05;;;;;;;20.43;14.07;;;7.60;99.90;;;;;;5088808;28;20661;-65
2021/11/21 06:51:31;;;;;;;20.53;14.80;;;7.60;99.90;;;;;;5083874;28;20207;-65
2021/11/21 06:53:56;;;;;;;22.20;14.97;;;7.60;99.90;;;;;;5088608;28;20285;-66
2021/11/21 06:56:23;;;;;;;28.17;16.40;;;7.60;99.90;;;;;;5079827;28;20181;-68
2021/11/21 06:58:49;;;;;;;19.80;14.33;;;7.70;99.90;;;;;;5091291;28;20205;-66
2021/11/21 07:01:14;;;;;;;23.53;15.50;;;7.70;99.90;;;;;;5082662;28;20241;-66
2021/11/21 07:03:40;;;;;;;25.50;14.90;;;7.70;99.90;;;;;;5071499;28;20266;-65
2021/11/21 07:06:06;;;;;;;26.73;17.07;;;7.70;99.90;;;;;;5090940;28;20192;-67
2021/11/21 07:08:32;;;;;;;20.43;15.83;;;7.60;99.90;;;;;;5091743;28;20165;-66
2021/11/21 07:10:57;;;;;;;15.77;13.60;;;7.60;99.90;;;;;;5081567;28;20250;-68
2021/11/21 07:13:23;;;;;;;22.73;15.57;;;7.60;99.90;;;;;;5091569;28;20174;-65
2021/11/21 07:15:49;;;;;;;27.10;15.93;;;7.70;99.90;;;;;;5081757;28;20181;-65
2021/11/21 07:18:15;;;;;;;26.03;17.77;;;7.70;99.90;;;;;;5089750;28;20177;-65
2021/11/21 07:20:41;;;;;;;22.97;16.37;;;7.70;99.90;;;;;;5076556;28;20657;-65
2021/11/21 07:23:06;;;;;;;28.50;16.40;;;7.70;99.90;;;;;;5075037;28;20283;-65
2021/11/21 07:25:32;;;;;;;25.87;16.77;;;7.70;99.90;;;;;;5084842;28;20198;-66
2021/11/21 07:27:59;;;;;;;22.97;16.63;;;7.70;99.90;;;;;;5073291;28;20178;-66
2021/11/21 07:30:25;;;;;;;26.10;15.30;;;7.80;99.90;;;;;;5089528;28;20666;-66
2021/11/21 07:32:53;;;;;;;24.50;16.63;;;7.80;99.90;;;;;;5091399;28;20193;-67
2021/11/21 07:35:21;;;;;;;21.77;16.40;;;7.80;99.90;;;;;;5086617;28;20205;-66
2021/11/21 07:37:47;;;;;;;26.33;17.77;;;7.80;99.90;;;;;;5074696;28;20178;-66
2021/11/21 07:40:14;;;;;;;31.53;16.63;;;7.80;99.90;;;;;;5080633;28;20215;-65
2021/11/21 07:42:40;;;;;;;25.83;16.40;;;7.80;99.90;;;;;;5089964;28;20208;-65
2021/11/21 07:45:08;;;;;;;27.23;16.73;;;7.90;99.90;;;;;;5080805;28;20197;-66
2021/11/21 07:47:34;;;;;;;29.10;18.00;;;7.90;99.90;;;;;;5072589;28;20177;-65
2021/11/21 07:49:59;;;;;;;22.53;17.03;;;7.90;99.90;;;;;;5080297;28;20636;-66
2021/11/21 07:52:26;;;;;;;25.03;17.00;;;7.90;99.90;;;;;;5069809;28;20697;-66
2021/11/21 07:54:52;;;;;;;23.80;17.63;;;7.90;99.90;;;;;;5083770;28;20212;-66
2021/11/21 07:57:18;;;;;;;30.07;17.90;;;7.90;99.90;;;;;;5081952;28;20177;-65
2021/11/21 07:59:44;;;;;;;22.07;16.23;;;7.80;99.90;;;;;;5089357;28;20175;-66
2021/11/21 08:02:11;;;;;;;27.37;17.43;;;7.80;99.90;;;;;;5074334;28;20240;-65
2021/11/21 08:04:36;;;;;;;27.10;17.37;;;7.80;99.90;;;;;;5084974;28;20205;-68
2021/11/21 08:07:03;;;;;;;24.47;16.53;;;7.80;99.90;;;;;;5074633;28;20170;-68
2021/11/21 08:09:29;;;;;;;30.53;18.63;;;7.80;99.90;;;;;;5078103;28;20177;-68
2021/11/21 08:11:55;;;;;;;24.17;17.17;;;7.90;99.90;;;;;;5094880;28;20166;-68
2021/11/21 08:14:20;;;;;;;22.53;16.57;;;8.00;99.90;;;;;;5089907;28;20193;-68
2021/11/21 08:16:47;;;;;;;23.43;16.13;;;8.00;99.90;;;;;;5073909;28;20186;-68
2021/11/21 08:19:13;;;;;;;22.70;16.03;;;8.00;99.90;;;;;;5081691;28;21514;-68
2021/11/21 08:21:39;;;;;;;24.53;15.67;;;7.90;99.90;;;;;;5077014;28;20235;-68
2021/11/21 08:24:07;;;;;;;26.77;16.47;;;7.80;99.90;;;;;;5085122;28;20497;-69
2021/11/21 08:26:34;;;;;;;18.50;15.67;;;7.70;99.90;;;;;;5085347;28;20261;-67
2021/11/21 08:28:59;;;;;;;20.47;15.40;;;7.70;99.90;;;;;;5078185;28;20177;-67
2021/11/21 08:31:25;;;;;;;23.00;14.63;;;7.80;99.90;;;;;;5080825;28;20182;-67
2021/11/21 08:33:51;;;;;;;23.37;16.37;;;7.80;99.90;;;;;;5094246;28;20570;-67
2021/11/21 08:36:16;;;;;;;22.90;16.37;;;7.80;99.90;;;;;;5093632;28;20207;-67
2021/11/21 08:38:42;;;;;;;21.77;15.87;;;7.80;99.90;;;;;;5074195;28;20246;-67
2021/11/21 08:41:08;;;;;;;23.20;14.93;;;7.90;99.90;;;;;;5073716;28;20790;-66
2021/11/21 08:43:33;;;;;;;20.53;15.07;;;7.90;99.90;;;;;;5091454;28;20193;-67
2021/11/21 08:45:59;;;;;;;25.20;16.17;;;7.90;99.90;;;;;;5094039;28;20165;-67
2021/11/21 08:48:24;;;;;;;22.33;14.67;;;7.90;99.90;;;;;;5074566;28;20197;-67
2021/11/21 08:50:50;;;;;;;16.77;13.73;;;7.80;99.90;;;;;;5073919;28;20650;-66
2021/11/21 08:53:16;;;;;;;23.97;14.77;;;7.90;99.90;;;;;;5088401;28;20264;-67
2021/11/21 08:55:42;;;;;;;21.10;15.30;;;8.00;99.90;;;;;;5093466;28;20200;-67
2021/11/21 08:58:09;;;;;;;21.07;14.37;;;7.90;99.90;;;;;;5077180;28;20212;-67
2021/11/21 09:00:35;;;;;;;20.27;14.10;;;7.80;99.90;;;;;;5073347;28;20212;-67
2021/11/21 09:03:00;;;;;;;20.40;14.63;;;7.90;99.90;;;;;;5085346;28;20201;-67
2021/11/21 09:05:26;;;;;;;18.47;15.13;;;7.80;99.90;;;;;;5093831;28;20193;-67
2021/11/21 09:07:52;;;;;;;19.03;14.20;;;7.80;99.90;;;;;;5080609;28;20174;-67
2021/11/21 09:10:20;;;;;;;26.53;16.40;;;7.80;99.90;;;;;;5072072;28;20171;-67
2021/11/21 09:12:46;;;;;;;17.43;14.37;;;7.80;99.90;;;;;;5084934;28;20635;-67
2021/11/21 09:15:16;;;;;;;19.40;14.17;;;7.80;99.90;;;;;;5082220;28;20198;-67
2021/11/21 09:17:47;;;;;;;18.70;13.90;;;7.80;99.90;;;;;;5073532;28;20553;-67
2021/11/21 09:20:14;;;;;;;18.43;13.77;;;7.80;99.90;;;;;;5082211;28;20193;-67
2021/11/21 09:22:40;;;;;;;17.27;13.30;;;7.80;99.90;;;;;;5093467;28;20224;-67
2021/11/21 09:25:06;;;;;;;22.80;15.50;;;7.80;99.90;;;;;;5084463;28;20190;-67
2021/11/21 09:27:32;;;;;;;16.50;13.10;;;7.80;99.90;;;;;;5073170;28;20704;-67
2021/11/21 09:29:58;;;;;;;14.23;12.13;;;7.80;99.90;;;;;;5078335;28;20276;-67
2021/11/21 09:32:24;;;;;;;18.33;13.07;;;7.90;99.90;;;;;;5092403;28;20170;-67
2021/11/21 09:34:49;;;;;;;20.30;13.13;;;7.90;99.90;;;;;;5087060;28;20214;-67
2021/11/21 09:37:15;;;;;;;14.30;12.90;;;8.00;99.90;;;;;;5071572;28;20182;-67
2021/11/21 09:39:41;;;;;;;23.43;13.17;;;8.00;99.90;;;;;;5072340;28;20613;-66
2021/11/21 09:42:07;;;;;;;17.87;12.70;;;8.00;99.90;;;;;;5081463;28;20247;-66
2021/11/21 09:44:32;;;;;;;18.20;12.67;;;8.10;99.90;;;;;;5072900;28;20190;-66
2021/11/21 09:46:58;;;;;;;18.47;13.60;;;8.10;99.90;;;;;;5072890;28;20261;-67
2021/11/21 09:49:26;;;;;;;13.90;12.20;;;8.10;99.90;;;;;;5092633;28;20214;-67
2021/11/21 09:51:52;;;;;;;14.83;12.10;;;8.20;99.90;;;;;;5078640;28;20185;-67
2021/11/21 09:54:18;;;;;;;17.87;11.60;;;8.30;99.90;;;;;;5069738;28;20205;-67
2021/11/21 09:56:45;;;;;;;17.10;12.63;;;8.30;99.90;;;;;;5083782;28;20196;-67
2021/11/21 09:59:10;;;;;;;16.30;12.80;;;8.40;99.90;;;;;;5091083;28;20264;-67
2021/11/21 10:01:38;;;;;;;16.57;12.80;;;8.40;99.90;;;;;;5088614;28;20281;-67
2021/11/21 10:04:05;;;;;;;14.97;12.90;;;8.50;99.90;;;;;;5091051;28;20189;-67
2021/11/21 10:06:34;;;;;;;15.03;11.43;;;8.50;99.90;;;;;;5081745;28;20227;-67
2021/11/21 10:09:00;;;;;;;15.83;13.53;;;8.50;99.90;;;;;;5071968;28;20635;-67
2021/11/21 10:11:26;;;;;;;15.00;11.97;;;8.40;99.90;;;;;;5082009;28;20257;-67
2021/11/21 10:13:55;;;;;;;14.80;12.33;;;8.40;99.90;;;;;;5092191;28;20607;-67
2021/11/21 10:16:36;;;;;;;14.63;13.03;;;8.30;99.90;;;;;;5081768;28;20174;-67
2021/11/21 10:19:08;;;;;;;12.57;11.33;;;8.30;99.90;;;;;;5071504;28;20453;-67
2021/11/21 10:21:49;;;;;;;15.67;12.13;;;8.30;99.90;;;;;;5081956;28;20201;-68
2021/11/21 10:24:14;;;;;;;15.60;12.17;;;8.30;99.90;;;;;;5092044;28;20590;-67
2021/11/21 10:26:41;;;;;;;12.83;10.27;;;8.40;99.90;;;;;;5079405;28;20289;-67
2021/11/21 10:29:26;;;;;;;13.90;12.40;;;8.50;99.90;;;;;;5071536;28;20371;-67
2021/11/21 10:31:52;;;;;;;17.40;11.57;;;8.70;99.90;;;;;;5082008;28;20181;-67
2021/11/21 10:34:18;;;;;;;16.30;12.80;;;8.70;99.90;;;;;;5091738;28;20354;-67
2021/11/21 10:36:44;;;;;;;14.53;11.40;;;8.80;99.90;;;;;;5081112;28;20174;-67
2021/11/21 10:39:10;;;;;;;17.20;11.53;;;8.90;99.90;;;;;;5071347;28;20174;-67
2021/11/21 10:41:41;;;;;;;17.67;11.60;;;9.10;99.90;;;;;;5080452;28;20212;-67
2021/11/21 10:44:12;;;;;;;14.00;12.13;;;9.10;99.90;;;;;;5091640;28;20182;-67
2021/11/21 10:46:46;;;;;;;13.83;11.53;;;9.10;99.90;;;;;;5085862;28;20180;-67
2021/11/21 10:49:19;;;;;;;15.97;12.50;;;9.10;99.90;;;;;;5091568;28;20266;-67
2021/11/21 10:51:46;;;;;;;13.97;12.63;;;9.10;99.90;;;;;;5081456;28;20541;-67
2021/11/21 10:54:28;;;;;;;14.50;12.47;;;9.10;99.90;;;;;;5069887;28;20546;-67
2021/11/21 10:56:56;;;;;;;13.20;11.97;;;9.10;99.90;;;;;;5083061;28;20177;-66
2021/11/21 10:59:49;;;;;;;16.53;11.93;;;9.10;99.90;;;;;;5091347;28;20165;-67
2021/11/21 11:02:15;;;;;;;15.20;12.50;;;9.10;99.90;;;;;;5077026;28;20206;-67
2021/11/21 11:05:07;;;;;;;15.23;11.87;;;9.00;99.90;;;;;;5071413;28;20186;-67
2021/11/21 11:07:57;;;;;;;14.93;10.87;;;9.00;99.90;;;;;;5088173;28;20177;-67
2021/11/21 11:10:26;;;;;;;12.13;10.90;;;9.00;99.90;;;;;;5089072;28;20181;-67
2021/11/21 11:12:59;;;;;;;11.87;10.73;;;9.00;99.90;;;;;;5071010;28;20723;-67
2021/11/21 11:15:26;;;;;;;12.57;10.07;;;9.00;99.90;;;;;;5069952;28;20219;-67
2021/11/21 11:17:53;;;;;;;14.03;11.33;;;8.90;99.90;;;;;;5088943;28;20177;-67
2021/11/21 11:20:21;;;;;;;13.97;11.17;;;8.80;99.90;;;;;;5090989;28;20174;-67
2021/11/21 11:22:48;;;;;;;16.17;12.93;;;8.80;99.90;;;;;;5073458;28;20201;-67
2021/11/21 11:25:23;;;;;;;16.87;13.17;;;8.90;99.90;;;;;;5071524;28;20251;-67
2021/11/21 11:28:13;;;;;;;14.97;12.03;;;9.00;99.90;;;;;;5089697;28;20165;-67
2021/11/21 11:30:40;;;;;;;12.23;10.90;;;9.10;99.90;;;;;;5089864;28;20174;-67
2021/11/21 11:33:11;;;;;;;12.33;11.03;;;9.10;99.90;;;;;;5089559;28;20262;-67
2021/11/21 11:35:48;;;;;;;12.50;11.33;;;9.20;99.90;;;;;;5089695;28;20188;-67
2021/11/21 11:38:22;;;;;;;17.50;11.60;;;9.30;99.90;;;;;;5052774;28;20205;-67
2021/11/21 11:40:52;;;;;;;13.87;11.63;;;9.40;99.90;;;;;;5056559;28;20584;-67
2021/11/21 11:43:23;;;;;;;12.07;10.77;;;9.50;99.90;;;;;;5095514;28;20173;-67
2021/11/21 11:46:12;;;;;;;13.17;11.37;;;9.60;99.90;;;;;;5092603;28;20642;-67
2021/11/21 11:48:54;;;;;;;12.93;11.30;;;9.60;99.90;;;;;;5066487;28;20198;-67
2021/11/21 11:51:29;;;;;;;15.67;12.70;;;9.70;99.90;;;;;;5079463;28;20182;-67
2021/11/21 11:54:03;;;;;;;11.63;10.43;;;9.80;99.90;;;;;;5094816;28;20203;-67
2021/11/21 11:56:52;;;;;;;12.07;10.00;;;9.70;99.90;;;;;;5086518;28;20178;-67
2021/11/21 11:59:36;;;;;;;12.43;11.00;;;9.70;99.90;;;;;;5074241;28;20174;-67
2021/11/21 12:02:20;;;;;;;14.20;12.50;;;9.70;99.90;;;;;;5084442;28;20201;-67
2021/11/21 12:04:47;;;;;;;12.80;11.57;;;9.70;99.90;;;;;;5095165;28;20200;-67
2021/11/21 12:07:29;;;;;;;12.53;11.33;;;9.60;99.90;;;;;;5082420;28;20174;-67
2021/11/21 12:10:05;;;;;;;12.20;10.13;;;9.60;99.90;;;;;;5074296;28;20197;-67
2021/11/21 12:12:49;;;;;;;10.20;9.30;;;9.60;99.90;;;;;;5088850;28;20181;-67
2021/11/21 12:15:45;;;;;;;10.77;9.67;;;9.20;99.90;;;;;;5094566;28;20209;-67
2021/11/21 12:18:11;;;;;;;9.00;8.10;;;9.00;99.90;;;;;;5074619;28;20235;-67
2021/11/21 12:20:42;;;;;;;10.73;8.23;;;8.90;99.90;;;;;;5074447;28;20174;-67
2021/11/21 12:23:08;;;;;;;9.30;8.70;;;8.90;99.90;;;;;;5091515;28;20468;-67
2021/11/21 12:25:34;;;;;;;8.57;8.00;;;8.90;99.90;;;;;;5094606;28;20232;-67
2021/11/21 12:28:02;;;;;;;9.40;8.70;;;9.00;99.90;;;;;;5075663;28;20228;-67
2021/11/21 12:30:33;;;;;;;8.90;8.20;;;9.00;99.90;;;;;;5074322;28;20550;-67
2021/11/21 12:33:19;;;;;;;8.97;8.17;;;8.90;99.90;;;;;;5090262;28;20631;-67
2021/11/21 12:35:52;;;;;;;8.63;7.63;;;8.80;99.90;;;;;;5092946;28;20181;-67
2021/11/21 12:38:21;;;;;;;8.93;8.33;;;8.70;99.90;;;;;;5053542;28;20186;-67
2021/11/21 12:40:57;;;;;;;8.57;7.77;;;8.70;99.90;;;;;;5053798;28;20186;-67